Terminal Aerodrome Forecast
Issued by NWS

Home | Current Version | Previous Version | Text Only | Print | Product List | Glossary On
Versions: 1 2 3 4 5 6 7 8 9 10 11 12 13 14 15
000
FTUS46 KSGX 252330
TAFONT
TAF
KONT 252330Z 2600/2706 22010G18KT 5SM -RA SCT005 BKN015 OVC025
      TEMPO 2600/2602 VRB05KT 1SM RA BR BKN005 OVC015
     FM260200 24012G20KT P6SM VCSH SCT015 BKN030 OVC045
     FM260400 25008G15KT P6SM SCT020 BKN035 BKN050
     FM260600 VRB05KT P6SM BKN050
     FM262200 31010KT P6SM SCT050
     FM270200 VRB05KT P6SM SCT060=

USA.gov is the U.S. government's official web portal to all federal, state and local government web resources and services.